MyTimes logo

TIMES

Webb Imagery

18/02/2007
Cowes Classic
500m Swim / 4.0km Run - Local Residents

(Click on competitor name to view personalised results)

Name
Race #
Category
Team Name
Time
(h:mm:ss)
Avg Speed
km/hr
OAll
Place
Cat
Place
ROWE Mark#92Local Senior Male0:24:51 10.9 11
EVANS Brad#19Local Senior Male0:25:35 10.6 22
DALLINGER Andrew#65Local Senior Male0:25:45 10.5 33
HANLEY Philip#236Local 50+ Male0:26:20 10.3 41
ROLLAND Thierry#279Local 40-49 Male0:26:40 10.1 51
KERR Lewis#211Local Junior Male0:26:42 10.1 61
FLEISNER Rob#217Local 40-49 Male0:26:47 10.1 72
BUTT Chloe#209Local Junior Female0:26:52 10 81
YUSKO Bill#239Local 50+ Male0:27:06 10 92
SPOTTISWOOD James#56Local Senior Male0:27:31 9.8 104
HUTCHINSON Warwick#25Local Senior Male0:28:01 9.6 115
SLAVIN Gavin#79Local Senior Male0:28:19 9.5 126
HOMER Ivan#222Local 40-49 Male0:28:22 9.5 133
CORBETT Jim#276Local 40-49 Male0:28:31 9.5 144
RIELLY Debbie#11Local Senior Female0:29:43 9.1 151
DOCHERTY Josh#241Local Junior Male0:29:57 9 162
RYAN Daniel#84Local Senior Male0:30:08 9 177
WILKINS Shaun#87Local Senior Male0:30:18 8.9 188
WILKINS Darren#88Local Senior Male0:30:21 8.9 199
HEWETT Noel#280Local 40-49 Male0:30:25 8.9 205
CROWE Susie#267Local Junior Female0:30:28 8.9 212
ROBINSON Jamie#242Local Junior Male0:30:52 8.7 223
LINFORD Rob#85Local Senior Male0:31:09 8.7 2310
VERNON Beau#53Local Senior Male0:31:24 8.6 2411
CHISHOLM Andy#14Local Senior Male0:31:41 8.5 2512
O'SULLIVAN Janine#10Local Senior Female0:32:28 8.3 262
SMITH James#253Local Junior Male0:33:16 8.1 274
O'KEEFE Louise#91Local Senior Female0:33:20 8.1 283
DAVIE Jasmine#269Local Junior Female0:33:30 8.1 293
MATTHEWS Robert#237Local 50+ Male0:33:53 8 303
ANDERS Tully#257Local Junior Male0:34:28 7.8 315
BOURKE Lucy#52Local Senior Female0:35:07 7.7 324
KEADY Richard#248Local 50+ Male0:36:07 7.5 334
PORTER Michael#247Local 40-49 Male0:37:04 7.3 346
CARTER Dean#230Local 50+ Male0:37:31 7.2 355
MORRISON Kerry Rach#206Local 50+ Female0:38:08 7.1 361
TAMBURO Alysha#86Local Senior Female0:38:23 7 375
DALLINGER Brian#233Local 50+ Male0:39:10 6.9 386
REEK George#271Local 50+ Male0:45:48 5.9 397
WEIR Turtle#281Local 50+ Male0:56:11 4.8 408